createdAt,value
2023-12-09T00:00:50.334Z,13.90
2023-12-09T00:03:17.773Z,16.30
2023-12-09T00:05:45.393Z,16.30
2023-12-09T00:08:13.225Z,14.70
2023-12-09T00:11:27.853Z,16.30
2023-12-09T00:13:55.946Z,15.70
2023-12-09T00:16:23.572Z,20.00
2023-12-09T00:18:51.076Z,19.20
2023-12-09T00:21:18.759Z,17.50
2023-12-09T00:23:47.859Z,17.00
2023-12-09T00:26:16.178Z,19.00
2023-12-09T00:28:43.543Z,16.80
2023-12-09T00:31:10.991Z,17.30
2023-12-09T00:33:38.489Z,16.80
2023-12-09T00:36:06.240Z,14.60
2023-12-09T00:38:33.796Z,17.40
2023-12-09T00:41:01.152Z,14.00
2023-12-09T00:43:28.530Z,14.10
2023-12-09T00:45:55.897Z,12.40
2023-12-09T00:48:23.685Z,14.30
2023-12-09T00:50:51.228Z,13.60
2023-12-09T00:53:18.754Z,13.20
2023-12-09T00:55:46.324Z,12.10
2023-12-09T00:58:13.679Z,13.30
2023-12-09T01:00:41.128Z,14.80
2023-12-09T01:03:08.564Z,17.30
2023-12-09T01:05:36.041Z,17.00
2023-12-09T01:08:03.522Z,15.70
2023-12-09T01:10:30.913Z,14.70
2023-12-09T01:12:58.248Z,16.00
2023-12-09T01:15:25.746Z,20.20
2023-12-09T01:17:53.258Z,19.90
2023-12-09T01:20:20.781Z,15.80
2023-12-09T01:22:48.265Z,19.40
2023-12-09T01:25:15.839Z,16.80
2023-12-09T01:27:43.229Z,16.00
2023-12-09T01:30:11.010Z,14.10
2023-12-09T01:32:38.451Z,13.40
2023-12-09T01:35:06.532Z,19.40
2023-12-09T01:37:33.955Z,14.70
2023-12-09T01:40:01.292Z,14.80
2023-12-09T01:42:29.109Z,11.60
2023-12-09T01:44:56.862Z,10.90
2023-12-09T01:47:24.483Z,12.60
2023-12-09T01:49:51.966Z,11.20
2023-12-09T01:52:19.540Z,8.90
2023-12-09T01:54:47.097Z,10.90
2023-12-09T01:57:14.503Z,10.50
2023-12-09T01:59:41.891Z,10.00
2023-12-09T02:02:09.420Z,9.10
2023-12-09T02:04:36.863Z,9.60
2023-12-09T02:07:04.467Z,8.80
2023-12-09T02:09:33.284Z,9.20
2023-12-09T02:12:12.150Z,8.80
2023-12-09T02:14:42.651Z,9.80
2023-12-09T02:17:22.613Z,12.80
2023-12-09T02:19:50.057Z,14.10
2023-12-09T02:22:17.508Z,16.60
2023-12-09T02:24:44.942Z,14.30
2023-12-09T02:27:14.077Z,13.70
2023-12-09T02:30:03.678Z,13.10
2023-12-09T02:32:32.411Z,11.40
2023-12-09T02:34:59.936Z,10.70
2023-12-09T02:37:28.050Z,10.00
2023-12-09T02:39:55.507Z,11.30
2023-12-09T02:42:22.913Z,11.50
2023-12-09T02:44:50.450Z,10.90
2023-12-09T02:47:18.046Z,11.20
2023-12-09T02:49:45.938Z,11.60
2023-12-09T02:52:13.574Z,11.50
2023-12-09T02:54:41.169Z,13.60
2023-12-09T02:57:08.597Z,14.20
2023-12-09T02:59:36.257Z,14.40
2023-12-09T03:02:03.839Z,14.80
2023-12-09T03:04:32.455Z,15.30
2023-12-09T03:06:59.808Z,14.00
2023-12-09T03:09:27.265Z,15.20
2023-12-09T03:11:54.686Z,13.60
2023-12-09T03:14:23.778Z,13.60
2023-12-09T03:16:51.223Z,12.80
2023-12-09T03:19:18.679Z,13.40
2023-12-09T03:21:46.090Z,14.70
2023-12-09T03:24:13.588Z,13.60
2023-12-09T03:26:41.016Z,14.10
2023-12-09T03:29:08.385Z,14.50
2023-12-09T03:31:35.749Z,14.20
2023-12-09T03:34:03.268Z,12.00
2023-12-09T03:36:30.788Z,13.40
2023-12-09T03:38:58.187Z,14.30
2023-12-09T03:41:26.331Z,12.80
2023-12-09T03:43:53.808Z,14.60
2023-12-09T03:46:21.206Z,17.20
2023-12-09T03:48:48.883Z,15.00
2023-12-09T03:51:16.409Z,15.20
2023-12-09T03:53:44.261Z,13.80
2023-12-09T03:56:14.476Z,15.40
2023-12-09T03:58:41.805Z,14.90
2023-12-09T04:01:09.300Z,14.50
2023-12-09T04:03:36.876Z,15.80
2023-12-09T04:06:06.586Z,15.00
2023-12-09T04:08:34.105Z,13.30
2023-12-09T04:11:01.503Z,15.00
2023-12-09T04:13:28.816Z,15.40
2023-12-09T04:15:56.237Z,14.00
2023-12-09T04:18:23.772Z,15.40
2023-12-09T04:20:51.342Z,17.30
2023-12-09T04:23:20.001Z,16.90
2023-12-09T04:25:47.347Z,17.80
2023-12-09T04:28:14.768Z,17.10
2023-12-09T04:30:42.412Z,17.10
2023-12-09T04:33:09.903Z,16.90
2023-12-09T04:35:37.523Z,15.80
2023-12-09T04:38:05.239Z,15.60
2023-12-09T04:40:32.613Z,15.00
2023-12-09T04:43:00.001Z,14.70
2023-12-09T04:45:27.442Z,15.10
2023-12-09T04:47:55.119Z,15.70
2023-12-09T04:50:22.682Z,15.20
2023-12-09T04:52:50.141Z,14.60
2023-12-09T04:55:17.566Z,16.30
2023-12-09T04:57:44.920Z,17.30
2023-12-09T05:00:12.987Z,16.50
2023-12-09T05:02:40.518Z,16.10
2023-12-09T05:05:07.943Z,17.50
2023-12-09T05:07:35.477Z,17.20
2023-12-09T05:10:03.530Z,17.00
2023-12-09T05:12:31.375Z,17.90
2023-12-09T05:15:00.742Z,16.10
2023-12-09T05:17:28.344Z,19.60
2023-12-09T05:19:55.796Z,20.60
2023-12-09T05:22:23.169Z,24.90
2023-12-09T05:24:52.070Z,22.10
2023-12-09T05:27:19.493Z,19.70
2023-12-09T05:29:46.911Z,19.40
2023-12-09T05:32:14.365Z,18.80
2023-12-09T05:34:41.913Z,19.10
2023-12-09T05:37:09.527Z,19.00
2023-12-09T05:39:36.935Z,17.00
2023-12-09T05:42:05.929Z,26.10
2023-12-09T05:44:33.476Z,27.30
2023-12-09T05:47:00.900Z,21.70
2023-12-09T05:49:28.329Z,20.70
2023-12-09T05:51:55.855Z,16.40
2023-12-09T05:54:23.302Z,18.50
2023-12-09T05:56:51.329Z,14.50
2023-12-09T05:59:18.718Z,14.60
2023-12-09T06:01:46.228Z,13.90
2023-12-09T06:04:13.774Z,14.70
2023-12-09T06:06:41.259Z,13.80
2023-12-09T06:09:10.411Z,11.30
2023-12-09T06:11:37.849Z,14.10
2023-12-09T06:14:05.245Z,13.50
2023-12-09T06:16:32.681Z,14.90
2023-12-09T06:19:00.052Z,13.50
2023-12-09T06:21:27.489Z,14.90
2023-12-09T06:23:54.914Z,14.80
2023-12-09T06:26:22.370Z,15.60
2023-12-09T06:28:49.841Z,15.90
2023-12-09T06:31:17.331Z,18.40
2023-12-09T06:33:45.020Z,16.00
2023-12-09T06:36:12.689Z,15.40
2023-12-09T06:38:41.200Z,15.00
2023-12-09T06:41:09.037Z,15.20
2023-12-09T06:43:36.562Z,14.00
2023-12-09T06:46:04.211Z,14.70
2023-12-09T06:48:31.765Z,16.60
2023-12-09T06:50:59.296Z,18.20
2023-12-09T06:53:26.701Z,17.20
2023-12-09T06:55:54.134Z,16.20
2023-12-09T06:58:21.611Z,16.70
2023-12-09T07:00:49.385Z,16.90
2023-12-09T07:03:17.033Z,17.40
2023-12-09T07:05:44.674Z,19.60
2023-12-09T07:08:12.262Z,18.20
2023-12-09T07:10:39.705Z,17.10
2023-12-09T07:13:07.275Z,19.50
2023-12-09T07:15:34.747Z,19.30
2023-12-09T07:18:02.392Z,18.90
2023-12-09T07:20:29.951Z,16.50
2023-12-09T07:22:57.374Z,15.60
2023-12-09T07:25:24.980Z,14.80
2023-12-09T07:27:52.447Z,10.70
2023-12-09T07:30:22.167Z,9.20
2023-12-09T07:32:49.683Z,9.30
2023-12-09T07:35:18.307Z,11.70
2023-12-09T07:37:48.055Z,10.60
2023-12-09T07:40:17.297Z,9.60
2023-12-09T07:42:45.160Z,8.40
2023-12-09T07:45:14.165Z,10.70
2023-12-09T07:47:41.803Z,10.70
2023-12-09T07:50:10.031Z,10.60
2023-12-09T07:52:37.429Z,10.50
2023-12-09T07:55:06.034Z,11.30
2023-12-09T07:57:33.599Z,11.60
2023-12-09T08:00:01.259Z,18.10
2023-12-09T08:02:29.087Z,14.80
2023-12-09T08:04:56.950Z,11.20
2023-12-09T08:07:24.468Z,11.50
2023-12-09T08:09:52.013Z,6.40
2023-12-09T08:12:19.374Z,6.10
2023-12-09T08:14:46.805Z,5.30
2023-12-09T08:17:14.233Z,6.30
2023-12-09T08:19:41.710Z,4.70
2023-12-09T08:22:09.248Z,5.30
2023-12-09T08:24:36.669Z,4.20
2023-12-09T08:27:04.719Z,5.40
2023-12-09T08:29:32.079Z,5.40
2023-12-09T08:31:59.572Z,6.00
2023-12-09T08:34:27.131Z,5.60
2023-12-09T08:36:54.654Z,4.60
2023-12-09T08:39:23.688Z,3.10
2023-12-09T08:41:51.515Z,3.00
2023-12-09T08:44:19.125Z,2.40
2023-12-09T08:46:46.586Z,2.90
2023-12-09T08:49:13.993Z,2.20
2023-12-09T08:51:48.250Z,1.70
2023-12-09T08:54:16.119Z,2.40
2023-12-09T08:56:43.600Z,3.30
2023-12-09T08:59:12.205Z,3.40
2023-12-09T09:01:39.830Z,2.90
2023-12-09T09:04:07.469Z,2.70
2023-12-09T09:06:35.245Z,2.70
2023-12-09T09:09:02.788Z,2.80
2023-12-09T09:11:30.237Z,2.50
2023-12-09T09:13:57.598Z,1.60
2023-12-09T09:16:24.958Z,1.80
2023-12-09T09:18:52.484Z,1.80
2023-12-09T09:21:20.030Z,1.00
2023-12-09T09:23:47.587Z,1.20
2023-12-09T09:26:15.120Z,1.20
2023-12-09T09:28:42.568Z,1.40
2023-12-09T09:31:12.936Z,1.60
2023-12-09T09:33:42.548Z,1.90
2023-12-09T09:36:10.513Z,1.80
2023-12-09T09:38:39.482Z,1.20
2023-12-09T09:41:08.572Z,2.30
2023-12-09T09:43:38.188Z,1.80
2023-12-09T09:46:08.386Z,2.00
2023-12-09T09:48:38.087Z,2.10
2023-12-09T09:51:07.028Z,1.90
2023-12-09T09:53:42.609Z,1.60
2023-12-09T09:56:10.932Z,1.70
2023-12-09T09:58:38.303Z,1.50
2023-12-09T10:01:05.957Z,1.20
2023-12-09T10:03:33.500Z,1.40
2023-12-09T10:06:00.986Z,1.90
2023-12-09T10:08:30.562Z,2.80
2023-12-09T10:10:57.970Z,2.20
2023-12-09T10:13:25.310Z,2.60
2023-12-09T10:15:52.699Z,2.70
2023-12-09T10:18:22.091Z,3.20
2023-12-09T10:20:51.103Z,3.90
2023-12-09T10:23:20.600Z,3.10
2023-12-09T10:25:49.194Z,3.50
2023-12-09T10:28:16.588Z,3.10
2023-12-09T10:30:44.989Z,3.50
2023-12-09T10:33:12.840Z,2.50
2023-12-09T10:35:40.440Z,2.30
2023-12-09T10:38:07.928Z,2.30
2023-12-09T10:40:35.631Z,2.80
2023-12-09T10:43:06.518Z,2.40
2023-12-09T10:45:34.157Z,3.00
2023-12-09T10:48:01.802Z,2.70
2023-12-09T10:50:29.775Z,3.30
2023-12-09T10:52:58.155Z,3.30
2023-12-09T10:55:25.529Z,2.30
2023-12-09T10:57:53.026Z,3.00
2023-12-09T11:00:20.559Z,3.50
2023-12-09T11:02:48.064Z,3.20
2023-12-09T11:05:16.377Z,3.60
2023-12-09T11:07:45.496Z,3.70
2023-12-09T11:10:13.074Z,5.00
2023-12-09T11:12:42.489Z,4.70
2023-12-09T11:15:17.100Z,4.30
2023-12-09T11:20:23.186Z,4.10
2023-12-09T11:22:50.728Z,4.10
2023-12-09T11:25:23.061Z,5.10
2023-12-09T11:27:52.164Z,5.00
2023-12-09T11:30:32.933Z,6.40
2023-12-09T11:33:00.570Z,5.40
2023-12-09T11:35:28.390Z,4.40
2023-12-09T11:37:56.337Z,4.30
2023-12-09T11:40:23.791Z,4.70
2023-12-09T11:42:51.260Z,5.10
2023-12-09T11:45:18.726Z,6.20
2023-12-09T11:47:47.022Z,5.20
2023-12-09T11:50:18.189Z,5.60
2023-12-09T11:52:45.948Z,11.20
2023-12-09T11:55:15.968Z,5.20
2023-12-09T11:57:43.328Z,5.90
2023-12-09T12:00:14.944Z,4.20
2023-12-09T12:02:45.409Z,3.90
2023-12-09T12:05:13.099Z,4.30
2023-12-09T12:07:40.880Z,2.90
2023-12-09T12:10:09.189Z,3.00
2023-12-09T12:12:37.210Z,4.70
2023-12-09T12:15:06.199Z,4.60
2023-12-09T12:17:41.133Z,4.00
2023-12-09T12:20:11.036Z,5.10
2023-12-09T12:22:40.371Z,5.00
2023-12-09T12:25:09.628Z,5.30
2023-12-09T12:29:09.039Z,5.40
2023-12-09T12:31:36.637Z,5.30
2023-12-09T12:34:20.341Z,5.00
2023-12-09T12:36:48.043Z,6.10
2023-12-09T12:39:15.981Z,4.30
2023-12-09T12:41:43.494Z,3.50
2023-12-09T12:44:12.258Z,5.70
2023-12-09T12:46:39.690Z,4.30
2023-12-09T12:49:07.242Z,3.60
2023-12-09T12:51:34.959Z,4.20
2023-12-09T12:54:03.005Z,3.90
2023-12-09T12:56:30.564Z,4.80
2023-12-09T12:58:58.071Z,4.40
2023-12-09T13:01:25.542Z,3.70
2023-12-09T13:03:53.102Z,3.40
2023-12-09T13:06:20.957Z,3.50
2023-12-09T13:08:49.034Z,4.40
2023-12-09T13:11:16.542Z,5.20
2023-12-09T13:13:43.972Z,5.20
2023-12-09T13:16:11.978Z,4.20
2023-12-09T13:18:39.581Z,5.40
2023-12-09T13:21:07.337Z,5.30
2023-12-09T13:23:34.907Z,5.20
2023-12-09T13:26:03.523Z,5.80
2023-12-09T13:28:30.978Z,4.60
2023-12-09T13:30:58.372Z,5.60
2023-12-09T13:33:26.068Z,4.30
2023-12-09T13:35:53.758Z,4.80
2023-12-09T13:38:21.209Z,4.80
2023-12-09T13:40:48.970Z,7.70
2023-12-09T13:43:16.445Z,9.00
2023-12-09T13:45:44.388Z,6.60
2023-12-09T13:48:12.770Z,5.60
2023-12-09T13:50:40.989Z,5.80
2023-12-09T13:53:08.727Z,6.40
2023-12-09T13:55:36.200Z,7.00
2023-12-09T13:58:05.151Z,8.80
2023-12-09T14:00:32.694Z,6.20
2023-12-09T14:03:00.405Z,8.90
2023-12-09T14:05:28.261Z,6.90
2023-12-09T14:07:55.828Z,8.50
2023-12-09T14:10:23.827Z,8.10
2023-12-09T14:12:51.377Z,9.30
2023-12-09T14:15:19.272Z,8.60
2023-12-09T14:17:47.653Z,7.90
2023-12-09T14:20:17.171Z,9.70
2023-12-09T14:22:47.197Z,7.90
2023-12-09T14:25:14.845Z,7.80
2023-12-09T14:27:42.360Z,7.30
2023-12-09T14:30:12.678Z,6.50
2023-12-09T14:32:45.156Z,4.90
2023-12-09T14:35:13.471Z,5.30
2023-12-09T14:37:42.173Z,5.40
2023-12-09T14:40:10.104Z,6.60
2023-12-09T14:42:37.745Z,6.00
2023-12-09T14:45:06.079Z,5.70
2023-12-09T14:47:33.815Z,5.00
2023-12-09T14:50:01.440Z,4.70
2023-12-09T14:52:29.292Z,5.10
2023-12-09T14:54:57.995Z,3.80
2023-12-09T14:57:25.583Z,3.90
2023-12-09T14:59:53.051Z,4.40
2023-12-09T15:02:20.483Z,4.30
2023-12-09T15:04:48.545Z,4.30
2023-12-09T15:07:16.032Z,7.10
2023-12-09T15:09:43.690Z,6.40
2023-12-09T15:12:11.279Z,6.10
2023-12-09T15:14:38.733Z,6.30
2023-12-09T15:17:07.078Z,6.80
2023-12-09T15:19:34.577Z,8.10
2023-12-09T15:22:02.108Z,6.90
2023-12-09T15:24:29.622Z,6.10
2023-12-09T15:26:57.260Z,4.90
2023-12-09T15:29:25.005Z,4.70
2023-12-09T15:31:52.932Z,3.80
2023-12-09T15:34:20.914Z,3.50
2023-12-09T15:36:48.482Z,3.40
2023-12-09T15:39:17.546Z,4.10
2023-12-09T15:41:45.183Z,3.50
2023-12-09T15:44:12.794Z,5.10
2023-12-09T15:46:40.831Z,3.90
2023-12-09T15:49:08.455Z,5.00
2023-12-09T15:51:36.181Z,4.20
2023-12-09T15:54:04.147Z,5.00
2023-12-09T15:56:31.669Z,4.30
2023-12-09T15:58:59.094Z,7.30
2023-12-09T16:01:26.649Z,8.50
2023-12-09T16:03:54.293Z,4.90
2023-12-09T16:06:21.954Z,4.00
2023-12-09T16:08:49.497Z,3.40
2023-12-09T16:11:17.012Z,3.30
2023-12-09T16:13:44.536Z,3.20
2023-12-09T16:16:11.973Z,3.80
2023-12-09T16:18:40.339Z,3.40
2023-12-09T16:21:08.649Z,4.30
2023-12-09T16:23:37.081Z,4.70
2023-12-09T16:26:05.770Z,5.30
2023-12-09T16:28:33.286Z,5.90
2023-12-09T16:31:00.935Z,6.40
2023-12-09T16:33:28.627Z,6.30
2023-12-09T16:35:56.136Z,6.00
2023-12-09T16:38:23.625Z,9.40
2023-12-09T16:40:51.073Z,8.40
2023-12-09T16:43:18.694Z,9.00
2023-12-09T16:45:46.218Z,8.10
2023-12-09T16:48:14.008Z,7.70
2023-12-09T16:50:41.635Z,8.30
2023-12-09T16:53:09.500Z,5.50
2023-12-09T16:55:37.156Z,6.80
2023-12-09T16:58:05.082Z,5.50
2023-12-09T17:00:34.622Z,6.40
2023-12-09T17:03:02.614Z,6.10
2023-12-09T17:05:30.111Z,6.60
2023-12-09T17:07:57.590Z,6.50
2023-12-09T17:10:25.040Z,7.40
2023-12-09T17:12:53.619Z,6.90
2023-12-09T17:15:21.306Z,8.40
2023-12-09T17:17:49.093Z,8.10
2023-12-09T17:20:17.194Z,7.60
2023-12-09T17:22:44.841Z,6.30
2023-12-09T17:25:12.453Z,5.30
2023-12-09T17:27:40.061Z,5.70
2023-12-09T17:30:08.464Z,6.30
2023-12-09T17:32:36.060Z,4.50
2023-12-09T17:35:03.666Z,5.20
2023-12-09T17:37:31.177Z,4.40
2023-12-09T17:39:58.633Z,5.50
2023-12-09T17:42:26.360Z,4.70
2023-12-09T17:44:54.395Z,6.30
2023-12-09T17:47:21.873Z,5.70
2023-12-09T17:49:49.426Z,5.80
2023-12-09T17:52:17.806Z,5.20
2023-12-09T17:54:45.322Z,4.80
2023-12-09T17:57:13.078Z,5.00
2023-12-09T17:59:40.865Z,5.10
2023-12-09T18:02:08.957Z,5.40
2023-12-09T18:04:36.710Z,5.80
2023-12-09T18:07:04.508Z,4.50
2023-12-09T18:09:32.478Z,4.50
2023-12-09T18:12:00.003Z,5.10
2023-12-09T18:14:27.506Z,3.70
2023-12-09T18:16:54.998Z,3.60
2023-12-09T18:19:22.676Z,3.20
2023-12-09T18:21:50.396Z,3.20
2023-12-09T18:24:20.263Z,3.60
2023-12-09T18:26:48.309Z,4.40
2023-12-09T18:29:15.894Z,4.70
2023-12-09T18:31:45.059Z,4.70
2023-12-09T18:34:13.033Z,5.30
2023-12-09T18:36:41.180Z,6.60
2023-12-09T18:39:09.147Z,5.90
2023-12-09T18:41:37.735Z,8.00
2023-12-09T18:44:06.253Z,10.40
2023-12-09T18:46:33.768Z,6.70
2023-12-09T18:49:01.522Z,5.80
2023-12-09T18:51:29.273Z,5.00
2023-12-09T18:53:56.715Z,5.40
2023-12-09T18:56:24.506Z,4.10
2023-12-09T18:58:52.004Z,4.40
2023-12-09T19:01:19.654Z,4.50
2023-12-09T19:03:47.281Z,4.00
2023-12-09T19:06:14.976Z,4.20
2023-12-09T19:08:43.453Z,4.10
2023-12-09T19:11:10.952Z,5.60
2023-12-09T19:13:38.592Z,5.10
2023-12-09T19:16:06.791Z,5.20
2023-12-09T19:18:34.679Z,5.40
2023-12-09T19:21:04.674Z,4.80
2023-12-09T19:23:32.278Z,6.60
2023-12-09T19:25:59.738Z,6.90
2023-12-09T19:28:27.287Z,7.90
2023-12-09T19:30:55.156Z,9.50
2023-12-09T19:33:22.769Z,7.60
2023-12-09T19:35:50.402Z,11.60
2023-12-09T19:38:17.885Z,9.40
2023-12-09T19:40:45.340Z,9.80
2023-12-09T19:43:12.911Z,10.00
2023-12-09T19:45:40.410Z,8.90
2023-12-09T19:48:08.135Z,9.50
2023-12-09T19:50:35.744Z,9.10
2023-12-09T19:53:05.137Z,7.80
2023-12-09T19:55:32.599Z,7.90
2023-12-09T19:58:02.189Z,10.80
2023-12-09T20:00:29.817Z,10.20
2023-12-09T20:02:59.577Z,9.70
2023-12-09T20:05:27.775Z,11.00
2023-12-09T20:07:55.294Z,11.40
2023-12-09T20:10:22.850Z,10.60
2023-12-09T20:12:51.812Z,13.50
2023-12-09T20:15:19.520Z,14.70
2023-12-09T20:17:47.147Z,15.00
2023-12-09T20:20:14.700Z,14.40
2023-12-09T20:22:42.318Z,14.60
2023-12-09T20:25:09.922Z,13.50
2023-12-09T20:27:37.798Z,11.80
2023-12-09T20:30:06.024Z,11.00
2023-12-09T20:32:33.750Z,9.40
2023-12-09T20:35:01.449Z,10.60
2023-12-09T20:37:28.883Z,10.50
2023-12-09T20:39:58.447Z,10.00
2023-12-09T20:42:26.198Z,11.40
2023-12-09T20:44:54.016Z,11.00
2023-12-09T20:47:21.457Z,10.90
2023-12-09T20:49:48.983Z,11.20
2023-12-09T20:52:17.325Z,11.00
2023-12-09T20:54:47.809Z,10.60
2023-12-09T20:57:15.634Z,11.50
2023-12-09T20:59:44.072Z,10.10
2023-12-09T21:02:11.575Z,10.60
2023-12-09T21:04:44.399Z,8.70
2023-12-09T21:07:12.081Z,9.20
2023-12-09T21:09:41.155Z,9.50
2023-12-09T21:12:09.222Z,8.60
2023-12-09T21:14:36.853Z,9.20
2023-12-09T21:17:04.520Z,9.80
2023-12-09T21:19:35.782Z,10.30
2023-12-09T21:22:04.135Z,10.40
2023-12-09T21:24:32.065Z,10.30
2023-12-09T21:26:59.553Z,10.20
2023-12-09T21:29:27.509Z,10.20
2023-12-09T21:31:55.408Z,11.60
2023-12-09T21:34:22.925Z,10.80
2023-12-09T21:36:50.550Z,10.50
2023-12-09T21:39:18.183Z,12.50
2023-12-09T21:41:45.633Z,9.90
2023-12-09T21:44:13.145Z,11.60
2023-12-09T21:46:40.938Z,8.60
2023-12-09T21:49:08.588Z,10.50
2023-12-09T21:51:40.637Z,9.90
2023-12-09T21:54:08.618Z,9.40
2023-12-09T21:56:36.237Z,10.00
2023-12-09T21:59:03.761Z,9.40
2023-12-09T22:01:31.495Z,9.40
2023-12-09T22:03:59.157Z,10.70
2023-12-09T22:06:26.880Z,10.10
2023-12-09T22:08:55.443Z,11.10
2023-12-09T22:11:22.877Z,10.20
2023-12-09T22:13:50.331Z,12.70
2023-12-09T22:16:23.857Z,10.70
2023-12-09T22:18:51.500Z,13.30
2023-12-09T22:21:19.206Z,13.50
2023-12-09T22:23:46.915Z,13.00
2023-12-09T22:26:14.609Z,12.30
2023-12-09T22:28:42.804Z,12.10
2023-12-09T22:31:10.328Z,12.30
2023-12-09T22:33:38.182Z,12.80
2023-12-09T22:36:06.224Z,11.50
2023-12-09T22:38:33.663Z,10.80
2023-12-09T22:41:01.180Z,10.00
2023-12-09T22:43:28.716Z,11.90
2023-12-09T22:45:56.507Z,12.60
2023-12-09T22:48:24.237Z,14.20
2023-12-09T22:50:54.634Z,14.20
2023-12-09T22:53:22.429Z,13.80
2023-12-09T22:55:49.869Z,11.90
2023-12-09T22:58:17.383Z,13.40
2023-12-09T23:00:45.009Z,13.70
2023-12-09T23:03:12.781Z,13.20
2023-12-09T23:05:40.346Z,13.00
2023-12-09T23:08:07.963Z,14.00
2023-12-09T23:10:35.444Z,11.70
2023-12-09T23:13:02.984Z,12.90
2023-12-09T23:15:30.473Z,12.00
2023-12-09T23:17:57.960Z,11.90
2023-12-09T23:20:25.484Z,11.80
2023-12-09T23:22:53.011Z,11.30
2023-12-09T23:25:20.462Z,11.90
2023-12-09T23:27:47.982Z,12.70
2023-12-09T23:30:15.606Z,12.50
2023-12-09T23:32:43.250Z,14.30
2023-12-09T23:35:10.735Z,13.40
2023-12-09T23:37:38.193Z,14.50
2023-12-09T23:40:06.171Z,15.40
2023-12-09T23:42:34.021Z,15.30
2023-12-09T23:45:01.640Z,13.20
2023-12-09T23:47:29.165Z,13.10
2023-12-09T23:49:56.734Z,12.70
2023-12-09T23:52:24.154Z,12.60
2023-12-09T23:54:51.689Z,11.20
2023-12-09T23:57:19.274Z,13.40
2023-12-09T23:59:46.791Z,13.30
